createdAt,value
2022-09-14T00:01:25.225Z,1.30
2022-09-14T00:03:55.198Z,1.42
2022-09-14T00:06:21.746Z,1.40
2022-09-14T00:08:51.691Z,1.50
2022-09-14T00:11:21.065Z,1.17
2022-09-14T00:13:48.547Z,1.55
2022-09-14T00:16:20.368Z,1.30
2022-09-14T00:18:54.169Z,1.50
2022-09-14T00:21:21.344Z,1.45
2022-09-14T00:23:48.217Z,1.52
2022-09-14T00:26:17.861Z,1.80
2022-09-14T00:28:47.671Z,1.40
2022-09-14T00:31:15.331Z,1.60
2022-09-14T00:33:43.558Z,1.50
2022-09-14T00:36:12.530Z,1.60
2022-09-14T00:38:39.882Z,1.30
2022-09-14T00:41:10.493Z,1.65
2022-09-14T00:44:01.646Z,1.70
2022-09-14T00:46:36.455Z,1.98
2022-09-14T00:49:10.298Z,1.35
2022-09-14T00:51:41.428Z,1.70
2022-09-14T00:54:08.328Z,1.50
2022-09-14T00:56:35.210Z,1.50
2022-09-14T00:59:10.472Z,1.55
2022-09-14T01:01:38.868Z,1.45
2022-09-14T01:04:05.309Z,1.55
2022-09-14T01:06:45.742Z,1.60
2022-09-14T01:09:32.074Z,2.28
2022-09-14T01:12:20.455Z,1.80
2022-09-14T01:15:02.080Z,1.90
2022-09-14T01:17:38.117Z,2.38
2022-09-14T01:20:19.763Z,1.85
2022-09-14T01:23:17.229Z,1.85
2022-09-14T01:26:16.128Z,2.55
2022-09-14T01:29:13.892Z,1.75
2022-09-14T01:32:17.044Z,2.20
2022-09-14T01:34:53.773Z,2.00
2022-09-14T01:37:31.856Z,2.15
2022-09-14T01:40:13.397Z,1.95
2022-09-14T01:42:42.768Z,1.70
2022-09-14T01:45:13.098Z,1.90
2022-09-14T01:47:54.927Z,1.60
2022-09-14T01:50:41.340Z,2.17
2022-09-14T01:53:27.024Z,1.85
2022-09-14T01:56:15.902Z,1.80
2022-09-14T01:58:50.248Z,1.75
2022-09-14T02:01:24.863Z,1.70
2022-09-14T02:04:00.159Z,2.35
2022-09-14T02:06:45.924Z,1.90
2022-09-14T02:09:16.962Z,1.85
2022-09-14T02:11:43.569Z,2.03
2022-09-14T02:14:10.653Z,1.90
2022-09-14T02:16:37.272Z,1.70
2022-09-14T02:19:04.362Z,1.80
2022-09-14T02:21:32.811Z,2.15
2022-09-14T02:24:00.127Z,1.70
2022-09-14T02:26:28.156Z,2.08
2022-09-14T02:28:56.153Z,1.90
2022-09-14T02:31:22.607Z,2.17
2022-09-14T02:34:01.822Z,2.10
2022-09-14T02:36:48.191Z,2.25
2022-09-14T02:39:33.203Z,1.85
2022-09-14T02:42:25.487Z,2.10
2022-09-14T02:45:04.211Z,2.05
2022-09-14T02:47:40.557Z,1.90
2022-09-14T02:50:24.332Z,2.42
2022-09-14T02:53:28.711Z,2.00
2022-09-14T02:56:00.292Z,1.70
2022-09-14T02:58:43.856Z,2.00
2022-09-14T03:01:13.591Z,2.17
2022-09-14T03:03:40.620Z,2.67
2022-09-14T03:06:09.486Z,2.47
2022-09-14T03:08:36.030Z,2.40
2022-09-14T03:11:03.332Z,2.05
2022-09-14T03:13:29.811Z,2.72
2022-09-14T03:15:56.409Z,2.20
2022-09-14T03:18:23.044Z,3.28
2022-09-14T03:20:49.458Z,2.20
2022-09-14T03:23:15.915Z,2.20
2022-09-14T03:25:43.952Z,2.03
2022-09-14T03:28:12.007Z,2.33
2022-09-14T03:30:38.454Z,2.30
2022-09-14T03:33:04.891Z,2.17
2022-09-14T03:35:32.335Z,2.33
2022-09-14T03:37:59.824Z,3.05
2022-09-14T03:40:27.335Z,2.10
2022-09-14T03:42:54.060Z,2.47
2022-09-14T03:45:21.104Z,1.85
2022-09-14T03:47:48.146Z,2.03
2022-09-14T03:50:15.704Z,1.98
2022-09-14T03:52:42.479Z,1.77
2022-09-14T03:55:09.347Z,1.70
2022-09-14T03:57:36.304Z,1.70
2022-09-14T04:00:05.077Z,1.50
2022-09-14T04:02:37.999Z,1.70
2022-09-14T04:05:04.992Z,1.27
2022-09-14T04:07:31.461Z,1.30
2022-09-14T04:09:58.303Z,1.08
2022-09-14T04:12:24.772Z,1.20
2022-09-14T04:14:51.256Z,0.90
2022-09-14T04:17:17.805Z,1.17
2022-09-14T04:19:44.217Z,1.42
2022-09-14T04:22:10.664Z,1.30
2022-09-14T04:24:37.170Z,1.25
2022-09-14T04:27:03.716Z,0.98
2022-09-14T04:29:30.618Z,1.38
2022-09-14T04:31:57.550Z,1.50
2022-09-14T04:34:24.026Z,1.50
2022-09-14T04:36:50.441Z,1.85
2022-09-14T04:39:17.015Z,2.72
2022-09-14T04:41:43.796Z,1.73
2022-09-14T04:44:10.365Z,1.85
2022-09-14T04:46:43.551Z,1.85
2022-09-14T04:49:13.212Z,1.80
2022-09-14T04:51:39.780Z,2.50
2022-09-14T04:54:07.045Z,1.85
2022-09-14T04:56:35.648Z,2.15
2022-09-14T04:59:04.274Z,1.90
2022-09-14T05:01:34.195Z,1.77
2022-09-14T05:04:00.750Z,2.08
2022-09-14T05:06:32.373Z,2.00
2022-09-14T05:09:00.038Z,1.83
2022-09-14T05:11:32.537Z,1.80
2022-09-14T05:14:00.416Z,2.15
2022-09-14T05:16:35.003Z,2.20
2022-09-14T05:19:04.713Z,2.08
2022-09-14T05:21:34.455Z,1.95
2022-09-14T05:24:04.798Z,2.13
2022-09-14T05:26:32.527Z,2.20
2022-09-14T05:29:00.627Z,2.10
2022-09-14T05:31:28.522Z,2.25
2022-09-14T05:33:55.199Z,1.80
2022-09-14T05:36:22.190Z,1.75
2022-09-14T05:38:49.413Z,1.77
2022-09-14T05:41:16.430Z,2.30
2022-09-14T05:43:44.021Z,1.92
2022-09-14T05:46:13.063Z,1.95
2022-09-14T05:48:40.282Z,2.00
2022-09-14T05:51:14.009Z,2.40
2022-09-14T05:53:40.700Z,2.13
2022-09-14T05:56:09.909Z,2.08
2022-09-14T05:58:37.484Z,2.60
2022-09-14T06:01:17.654Z,2.25
2022-09-14T06:03:45.182Z,1.77
2022-09-14T06:06:13.873Z,1.80
2022-09-14T06:08:40.634Z,1.50
2022-09-14T06:11:09.760Z,1.65
2022-09-14T06:13:36.635Z,1.73
2022-09-14T06:16:05.382Z,2.50
2022-09-14T06:18:33.911Z,1.90
2022-09-14T06:21:00.708Z,2.20
2022-09-14T06:23:28.692Z,2.08
2022-09-14T06:25:56.884Z,1.67
2022-09-14T06:28:24.535Z,1.75
2022-09-14T06:30:51.356Z,1.73
2022-09-14T06:33:19.211Z,1.92
2022-09-14T06:36:00.617Z,1.88
2022-09-14T06:38:28.439Z,1.80
2022-09-14T06:40:56.996Z,2.30
2022-09-14T06:43:30.042Z,2.13
2022-09-14T06:46:01.907Z,2.20
2022-09-14T06:48:38.171Z,2.58
2022-09-14T06:51:18.938Z,1.98
2022-09-14T06:53:49.069Z,2.10
2022-09-14T06:56:15.920Z,2.05
2022-09-14T06:58:43.058Z,1.80
2022-09-14T07:01:17.627Z,2.47
2022-09-14T07:03:44.659Z,1.98
2022-09-14T07:06:14.132Z,2.38
2022-09-14T07:08:41.369Z,2.00
2022-09-14T07:11:09.713Z,2.08
2022-09-14T07:13:36.439Z,2.15
2022-09-14T07:16:03.534Z,2.03
2022-09-14T07:18:34.032Z,1.92
2022-09-14T07:21:05.844Z,2.28
2022-09-14T07:23:33.683Z,2.42
2022-09-14T07:26:06.082Z,1.75
2022-09-14T07:28:33.179Z,2.33
2022-09-14T07:31:00.311Z,2.00
2022-09-14T07:33:27.331Z,2.05
2022-09-14T07:35:54.742Z,2.58
2022-09-14T07:38:35.787Z,2.13
2022-09-14T07:41:08.052Z,2.53
2022-09-14T07:43:34.964Z,2.20
2022-09-14T07:46:06.030Z,2.10
2022-09-14T07:48:33.771Z,2.03
2022-09-14T07:51:03.611Z,1.90
2022-09-14T07:57:17.372Z,3.90
2022-09-14T07:59:43.889Z,2.40
2022-09-14T08:02:11.348Z,2.22
2022-09-14T08:04:40.961Z,1.80
2022-09-14T08:07:07.890Z,2.35
2022-09-14T08:09:34.507Z,2.20
2022-09-14T08:12:01.056Z,2.83
2022-09-14T08:14:27.549Z,1.98
2022-09-14T08:16:54.061Z,2.03
2022-09-14T08:19:20.958Z,3.00
2022-09-14T08:21:48.070Z,2.10
2022-09-14T08:24:17.602Z,2.42
2022-09-14T08:26:44.606Z,2.15
2022-09-14T08:29:12.630Z,1.73
2022-09-14T08:31:39.911Z,2.30
2022-09-14T08:34:08.183Z,2.30
2022-09-14T08:36:37.173Z,2.10
2022-09-14T08:39:09.021Z,2.40
2022-09-14T08:41:58.838Z,1.98
2022-09-14T08:44:31.242Z,2.03
2022-09-14T08:47:02.768Z,1.88
2022-09-14T08:49:48.021Z,2.38
2022-09-14T08:52:24.751Z,2.33
2022-09-14T08:54:55.816Z,2.42
2022-09-14T08:57:48.111Z,2.17
2022-09-14T09:00:22.383Z,2.50
2022-09-14T09:03:29.501Z,2.40
2022-09-14T09:08:43.431Z,2.13
2022-09-14T09:11:17.539Z,2.72
2022-09-14T09:13:46.026Z,2.30
2022-09-14T09:16:16.810Z,2.47
2022-09-14T09:18:49.457Z,2.13
2022-09-14T09:21:22.908Z,1.73
2022-09-14T09:23:49.621Z,2.03
2022-09-14T09:26:19.557Z,2.72
2022-09-14T09:28:49.911Z,2.20
2022-09-14T09:31:19.055Z,2.17
2022-09-14T09:34:13.764Z,2.20
2022-09-14T09:36:46.490Z,2.20
2022-09-14T09:39:13.146Z,2.53
2022-09-14T09:41:57.234Z,2.35
2022-09-14T09:44:23.802Z,2.22
2022-09-14T09:46:54.191Z,1.90
2022-09-14T09:49:28.523Z,2.08
2022-09-14T09:51:55.525Z,2.72
2022-09-14T09:54:32.177Z,1.75
2022-09-14T09:57:18.597Z,2.42
2022-09-14T09:59:46.729Z,1.60
2022-09-14T10:02:32.175Z,2.28
2022-09-14T10:05:09.398Z,2.40
2022-09-14T10:07:58.017Z,1.60
2022-09-14T10:10:39.952Z,1.90
2022-09-14T10:13:21.853Z,1.88
2022-09-14T10:15:49.971Z,1.77
2022-09-14T10:18:20.463Z,1.73
2022-09-14T10:20:52.970Z,1.80
2022-09-14T10:23:19.458Z,2.60
2022-09-14T10:25:48.016Z,1.60
2022-09-14T10:28:24.701Z,1.52
2022-09-14T10:31:01.773Z,1.73
2022-09-14T10:33:29.727Z,1.88
2022-09-14T10:36:19.400Z,1.60
2022-09-14T10:38:58.410Z,1.85
2022-09-14T10:41:49.978Z,1.65
2022-09-14T10:44:39.662Z,1.50
2022-09-14T10:47:13.815Z,1.48
2022-09-14T10:50:11.452Z,1.50
2022-09-14T10:53:04.072Z,1.90
2022-09-14T10:55:55.653Z,1.70
2022-09-14T10:58:34.222Z,1.40
2022-09-14T11:01:12.978Z,1.20
2022-09-14T11:03:49.002Z,2.10
2022-09-14T11:06:26.971Z,1.42
2022-09-14T11:09:02.267Z,1.77
2022-09-14T11:11:49.162Z,1.40
2022-09-14T11:14:53.235Z,1.50
2022-09-14T11:17:35.492Z,1.20
2022-09-14T11:20:42.605Z,1.15
2022-09-14T11:23:21.756Z,1.40
2022-09-14T11:25:55.191Z,2.05
2022-09-14T11:28:30.878Z,1.60
2022-09-14T11:31:23.659Z,1.45
2022-09-14T11:34:06.203Z,1.50
2022-09-14T11:36:48.212Z,1.20
2022-09-14T11:39:23.477Z,1.30
2022-09-14T11:41:55.307Z,1.33
2022-09-14T11:44:27.475Z,1.63
2022-09-14T11:47:03.559Z,1.60
2022-09-14T11:49:39.694Z,1.45
2022-09-14T11:52:22.991Z,1.70
2022-09-14T11:54:51.011Z,1.60
2022-09-14T11:57:25.134Z,1.63
2022-09-14T12:00:05.127Z,1.42
2022-09-14T12:02:37.644Z,1.77
2022-09-14T12:05:07.196Z,1.90
2022-09-14T12:07:39.702Z,1.60
2022-09-14T12:10:15.376Z,1.48
2022-09-14T12:12:44.504Z,1.30
2022-09-14T12:15:28.958Z,1.40
2022-09-14T12:18:01.210Z,1.23
2022-09-14T12:20:40.402Z,1.85
2022-09-14T12:23:20.668Z,1.67
2022-09-14T12:26:05.976Z,1.30
2022-09-14T12:28:35.456Z,1.67
2022-09-14T12:31:04.736Z,1.50
2022-09-14T12:33:31.387Z,1.45
2022-09-14T12:35:59.794Z,1.27
2022-09-14T12:38:29.005Z,1.40
2022-09-14T12:41:21.800Z,1.80
2022-09-14T12:43:51.240Z,1.60
2022-09-14T12:46:20.867Z,1.45
2022-09-14T12:48:47.435Z,1.55
2022-09-14T12:51:24.247Z,1.27
2022-09-14T12:54:09.118Z,0.88
2022-09-14T12:57:06.430Z,0.90
2022-09-14T12:59:51.477Z,1.42
2022-09-14T13:02:36.441Z,0.90
2022-09-14T13:05:07.279Z,0.80
2022-09-14T13:07:36.576Z,0.80
2022-09-14T13:10:06.486Z,0.73
2022-09-14T13:12:45.237Z,0.70
2022-09-14T13:15:32.679Z,0.80
2022-09-14T13:18:04.135Z,0.80
2022-09-14T13:20:33.490Z,0.65
2022-09-14T13:23:00.773Z,0.65
2022-09-14T13:25:36.428Z,0.80
2022-09-14T13:28:06.084Z,0.80
2022-09-14T13:30:35.217Z,0.80
2022-09-14T13:33:03.333Z,0.75
2022-09-14T13:35:43.528Z,0.70
2022-09-14T13:38:21.783Z,0.73
2022-09-14T13:40:50.182Z,0.60
2022-09-14T13:43:18.882Z,0.88
2022-09-14T13:45:46.326Z,0.88
2022-09-14T13:48:15.255Z,0.77
2022-09-14T13:50:44.893Z,0.70
2022-09-14T13:53:48.627Z,0.70
2022-09-14T13:56:41.400Z,0.70
2022-09-14T13:59:19.176Z,0.77
2022-09-14T14:01:58.468Z,0.73
2022-09-14T14:04:37.353Z,0.80
2022-09-14T14:07:12.849Z,0.90
2022-09-14T14:09:50.912Z,0.88
2022-09-14T14:12:27.229Z,0.55
2022-09-14T14:14:58.076Z,0.68
2022-09-14T14:17:29.048Z,0.80
2022-09-14T14:19:58.559Z,0.63
2022-09-14T14:22:24.957Z,0.70
2022-09-14T14:27:43.301Z,0.70
2022-09-14T14:30:14.718Z,0.80
2022-09-14T14:32:41.540Z,0.90
2022-09-14T14:35:15.629Z,0.52
2022-09-14T14:37:42.149Z,0.80
2022-09-14T14:40:12.454Z,1.00
2022-09-14T14:42:39.674Z,0.70
2022-09-14T14:45:07.126Z,0.70
2022-09-14T14:47:33.688Z,0.88
2022-09-14T14:50:00.442Z,1.85
2022-09-14T14:52:27.027Z,0.70
2022-09-14T14:54:53.682Z,0.90
2022-09-14T14:57:20.167Z,1.30
2022-09-14T14:59:47.029Z,1.13
2022-09-14T15:02:13.525Z,0.95
2022-09-14T15:04:39.977Z,1.00
2022-09-14T15:07:06.552Z,0.65
2022-09-14T15:09:33.074Z,0.68
2022-09-14T15:11:59.682Z,0.82
2022-09-14T15:14:27.791Z,0.90
2022-09-14T15:16:59.563Z,0.73
2022-09-14T15:19:27.135Z,0.80
2022-09-14T15:21:57.275Z,0.80
2022-09-14T15:24:26.771Z,0.70
2022-09-14T15:26:54.367Z,0.70
2022-09-14T15:29:20.861Z,0.90
2022-09-14T15:31:47.489Z,1.08
2022-09-14T15:34:15.658Z,1.10
2022-09-14T15:36:50.900Z,0.70
2022-09-14T15:39:20.722Z,0.70
2022-09-14T15:41:47.336Z,0.73
2022-09-14T15:44:15.426Z,1.10
2022-09-14T15:46:43.995Z,0.60
2022-09-14T15:49:17.958Z,0.80
2022-09-14T15:51:46.855Z,0.85
2022-09-14T15:54:13.987Z,0.85
2022-09-14T15:56:40.676Z,0.63
2022-09-14T15:59:07.492Z,0.77
2022-09-14T16:01:34.164Z,0.90
2022-09-14T16:04:02.757Z,1.00
2022-09-14T16:06:30.095Z,1.63
2022-09-14T16:08:57.686Z,1.20
2022-09-14T16:11:24.573Z,0.90
2022-09-14T16:13:51.719Z,0.70
2022-09-14T16:16:19.867Z,0.80
2022-09-14T16:18:47.825Z,0.70
2022-09-14T16:21:22.898Z,0.68
2022-09-14T16:23:52.770Z,0.80
2022-09-14T16:26:22.383Z,0.70
2022-09-14T16:28:50.472Z,1.25
2022-09-14T16:31:23.183Z,1.13
2022-09-14T16:33:52.537Z,1.10
2022-09-14T16:36:21.987Z,0.60
2022-09-14T16:38:48.557Z,0.70
2022-09-14T16:41:16.068Z,0.90
2022-09-14T16:43:42.608Z,0.88
2022-09-14T16:46:12.545Z,0.60
2022-09-14T16:48:41.600Z,0.90
2022-09-14T16:51:08.393Z,1.08
2022-09-14T16:53:36.894Z,0.73
2022-09-14T16:56:05.891Z,0.77
2022-09-14T16:58:33.057Z,0.70
2022-09-14T17:01:10.089Z,0.90
2022-09-14T17:03:37.001Z,0.95
2022-09-14T17:06:06.212Z,0.80
2022-09-14T17:08:33.980Z,0.80
2022-09-14T17:11:01.740Z,0.88
2022-09-14T17:13:28.347Z,0.55
2022-09-14T17:16:01.730Z,0.70
2022-09-14T17:18:29.126Z,0.80
2022-09-14T17:20:58.428Z,0.80
2022-09-14T17:23:25.840Z,0.75
2022-09-14T17:25:53.159Z,0.82
2022-09-14T17:28:25.640Z,0.60
2022-09-14T17:30:57.103Z,0.70
2022-09-14T17:33:24.357Z,0.80
2022-09-14T17:35:53.990Z,0.70
2022-09-14T17:38:21.727Z,0.77
2022-09-14T17:40:49.235Z,0.77
2022-09-14T17:43:16.596Z,0.80
2022-09-14T17:45:53.022Z,0.80
2022-09-14T17:48:19.988Z,0.70
2022-09-14T17:50:46.732Z,1.02
2022-09-14T17:53:13.547Z,0.90
2022-09-14T17:55:40.683Z,0.90
2022-09-14T17:58:07.544Z,1.00
2022-09-14T18:00:34.199Z,0.80
2022-09-14T18:03:00.931Z,0.82
2022-09-14T18:05:27.931Z,0.95
2022-09-14T18:07:54.655Z,1.00
2022-09-14T18:10:21.203Z,1.17
2022-09-14T18:12:48.177Z,0.90
2022-09-14T18:15:16.367Z,0.90
2022-09-14T18:17:44.737Z,0.80
2022-09-14T18:20:12.429Z,1.17
2022-09-14T18:22:38.978Z,0.70
2022-09-14T18:25:07.038Z,1.33
2022-09-14T18:27:33.538Z,0.77
2022-09-14T18:30:00.079Z,1.08
2022-09-14T18:32:26.979Z,0.93
2022-09-14T18:34:53.770Z,1.00
2022-09-14T18:37:22.873Z,1.25
2022-09-14T18:39:49.410Z,0.90
2022-09-14T18:42:15.897Z,1.30
2022-09-14T18:44:42.335Z,0.85
2022-09-14T18:47:08.840Z,1.00
2022-09-14T18:49:35.372Z,1.20
2022-09-14T18:52:02.844Z,1.40
2022-09-14T18:54:29.328Z,1.42
2022-09-14T18:56:55.807Z,1.92
2022-09-14T18:59:22.254Z,1.80
2022-09-14T19:01:48.788Z,1.50
2022-09-14T19:04:15.830Z,1.42
2022-09-14T19:06:44.327Z,1.20
2022-09-14T19:09:11.098Z,1.10
2022-09-14T19:11:37.724Z,1.27
2022-09-14T19:14:10.433Z,0.82
2022-09-14T19:16:39.194Z,1.52
2022-09-14T19:19:06.934Z,1.10
2022-09-14T19:21:33.816Z,1.17
2022-09-14T19:24:03.424Z,1.10
2022-09-14T19:26:33.863Z,1.02
2022-09-14T19:29:01.703Z,1.15
2022-09-14T19:31:30.458Z,1.20
2022-09-14T19:33:58.517Z,1.20
2022-09-14T19:36:25.309Z,1.30
2022-09-14T19:38:52.132Z,1.20
2022-09-14T19:41:19.971Z,1.27
2022-09-14T19:43:46.921Z,0.90
2022-09-14T19:46:16.616Z,1.42
2022-09-14T19:48:43.857Z,1.15
2022-09-14T19:51:15.989Z,1.45
2022-09-14T19:53:43.667Z,1.25
2022-09-14T19:56:14.892Z,1.50
2022-09-14T19:58:44.448Z,1.38
2022-09-14T20:01:11.392Z,1.38
2022-09-14T20:03:39.598Z,1.40
2022-09-14T20:06:12.238Z,1.35
2022-09-14T20:08:38.958Z,1.00
2022-09-14T20:11:14.717Z,1.67
2022-09-14T20:13:43.458Z,0.98
2022-09-14T20:16:22.366Z,1.20
2022-09-14T20:18:50.581Z,1.38
2022-09-14T20:21:19.721Z,1.33
2022-09-14T20:24:11.650Z,1.50
2022-09-14T20:26:33.638Z,1.40
2022-09-14T20:29:01.283Z,1.20
2022-09-14T20:31:29.081Z,1.10
2022-09-14T20:33:57.001Z,1.30
2022-09-14T20:36:25.303Z,1.30
2022-09-14T20:38:54.549Z,1.23
2022-09-14T20:41:24.100Z,1.75
2022-09-14T20:43:51.778Z,1.20
2022-09-14T20:46:21.071Z,1.30
2022-09-14T20:48:48.848Z,1.23
2022-09-14T20:51:20.703Z,1.95
2022-09-14T20:54:04.925Z,1.40
2022-09-14T20:56:33.993Z,1.58
2022-09-14T20:59:02.300Z,1.45
2022-09-14T21:01:31.823Z,1.75
2022-09-14T21:04:09.063Z,1.67
2022-09-14T21:06:39.225Z,1.20
2022-09-14T21:09:06.620Z,1.10
2022-09-14T21:11:33.665Z,1.25
2022-09-14T21:14:00.296Z,1.30
2022-09-14T21:16:29.834Z,1.40
2022-09-14T21:19:04.431Z,1.40
2022-09-14T21:21:31.120Z,1.15
2022-09-14T21:23:58.728Z,1.20
2022-09-14T21:26:26.910Z,1.20
2022-09-14T21:29:00.581Z,1.10
2022-09-14T21:31:29.782Z,1.50
2022-09-14T21:33:58.868Z,1.02
2022-09-14T21:36:37.221Z,1.00
2022-09-14T21:39:08.564Z,1.30
2022-09-14T21:41:36.566Z,1.33
2022-09-14T21:44:03.849Z,1.00
2022-09-14T21:46:30.864Z,1.33
2022-09-14T21:48:57.607Z,1.00
2022-09-14T21:51:27.404Z,1.10
2022-09-14T21:54:02.247Z,1.05
2022-09-14T21:56:30.468Z,1.25
2022-09-14T21:58:59.281Z,0.88
2022-09-14T22:01:26.820Z,1.23
2022-09-14T22:03:54.878Z,1.05
2022-09-14T22:06:23.639Z,0.82
2022-09-14T22:08:51.834Z,1.05
2022-09-14T22:11:23.663Z,0.90
2022-09-14T22:13:57.940Z,1.00
2022-09-14T22:16:26.127Z,1.10
2022-09-14T22:18:58.299Z,0.80
2022-09-14T22:21:29.798Z,1.20
2022-09-14T22:23:59.455Z,1.13
2022-09-14T22:26:28.577Z,0.98
2022-09-14T22:28:55.463Z,0.90
2022-09-14T22:31:23.174Z,0.82
2022-09-14T22:33:50.802Z,0.82
2022-09-14T22:36:17.572Z,0.90
2022-09-14T22:38:44.026Z,0.80
2022-09-14T22:41:13.252Z,0.70
2022-09-14T22:43:41.005Z,0.80
2022-09-14T22:46:08.812Z,0.80
2022-09-14T22:48:36.505Z,0.80
2022-09-14T22:51:03.977Z,0.82
2022-09-14T22:53:31.291Z,0.73
2022-09-14T22:55:58.125Z,0.90
2022-09-14T22:58:27.135Z,0.93
2022-09-14T23:00:54.031Z,0.60
2022-09-14T23:03:20.914Z,0.70
2022-09-14T23:05:52.440Z,0.80
2022-09-14T23:08:20.926Z,0.80
2022-09-14T23:10:48.155Z,0.70
2022-09-14T23:13:15.573Z,0.73
2022-09-14T23:15:42.513Z,0.75
2022-09-14T23:18:09.227Z,0.80
2022-09-14T23:20:37.801Z,0.77
2022-09-14T23:23:04.323Z,0.68
2022-09-14T23:25:31.381Z,0.57
2022-09-14T23:27:57.895Z,0.80
2022-09-14T23:30:24.398Z,0.70
2022-09-14T23:32:50.866Z,0.68
2022-09-14T23:35:17.557Z,0.73
2022-09-14T23:37:44.094Z,0.77
2022-09-14T23:40:10.847Z,1.00
2022-09-14T23:42:37.356Z,0.90
2022-09-14T23:45:05.175Z,1.00
2022-09-14T23:47:31.660Z,0.90
2022-09-14T23:49:58.225Z,0.93
2022-09-14T23:52:24.823Z,1.00
2022-09-14T23:54:51.261Z,0.80
2022-09-14T23:57:17.855Z,1.00
2022-09-14T23:59:44.755Z,0.93
